CPX654 Details

Departure: The Florida Keys Marathon International Airport (KMTH)
Arrival: Key West International Airport (KEYW) at N/A
Route: JANKA
Notes:


Current Weather Information
KMTH 171653Z AUTO VRB05KT 10SM CLR 33/24 A3009 RMK AO2 SLP190 T03280244
KEYW 171653Z 20008KT 10SM CLR 31/25 A3009 RMK AO2 SLP189 T03060250